Time;durP1;ratioP1;P1;durP2;ratioP2;P2;SDS_P1;SDS_P2;PMS_P1;PMS_P2;Temp;Humidity;BMP_temperature;BMP_pressure;BME280_temperature;BME280_humidity;BME280_pressure;Samples;Min_cycle;Max_cycle;Signal;HPM_P1;HPM_P2
2023/12/11 06:38:54;;;;;;;11.40;3.85;;;;;;;;;;7631105;19;21043;-75
2023/12/11 06:41:26;;;;;;;7.07;3.33;;;;;;;;;;7627436;19;20480;-75
2023/12/11 06:43:59;;;;;;;6.13;3.00;;;;;;;;;;7636822;19;20839;-75
2023/12/11 06:46:32;;;;;;;6.77;3.60;;;;;;;;;;7638603;19;20548;-75
2023/12/11 06:49:05;;;;;;;7.07;3.05;;;;;;;;;;7630160;19;20279;-76
2023/12/11 06:51:38;;;;;;;5.80;3.47;;;;;;;;;;7641819;19;20757;-75
2023/12/11 06:54:11;;;;;;;5.97;3.88;;;;;;;;;;7642383;19;20309;-76
2023/12/11 06:56:44;;;;;;;6.43;3.28;;;;;;;;;;7642074;19;22566;-76
2023/12/11 06:59:17;;;;;;;6.47;3.13;;;;;;;;;;7635828;19;20006;-75
2023/12/11 07:01:50;;;;;;;6.30;3.50;;;;;;;;;;7638923;19;20010;-76
2023/12/11 07:04:22;;;;;;;8.43;3.03;;;;;;;;;;7616803;19;20015;-74
2023/12/11 07:06:55;;;;;;;6.55;3.25;;;;;;;;;;7617864;19;20014;-74
2023/12/11 07:09:29;;;;;;;6.72;3.75;;;;;;;;;;7623984;19;20014;-75
2023/12/11 07:12:02;;;;;;;7.40;3.75;;;;;;;;;;7616548;19;20034;-74
2023/12/11 07:14:35;;;;;;;7.13;3.35;;;;;;;;;;7620544;19;20484;-75
2023/12/11 07:17:08;;;;;;;5.77;4.13;;;;;;;;;;7609901;19;20015;-74
2023/12/11 07:19:41;;;;;;;5.70;4.63;;;;;;;;;;7617262;19;20101;-74
2023/12/11 07:22:14;;;;;;;6.97;4.07;;;;;;;;;;7621370;19;20019;-75
2023/12/11 07:24:49;;;;;;;8.65;4.22;;;;;;;;;;7620290;19;20507;-75
2023/12/11 14:34:19;;;;;;;0.73;0.60;;;;;;;;;;7629320;19;20385;-75
2023/12/11 14:36:52;;;;;;;2.42;0.70;;;;;;;;;;7637459;19;20547;-76
2023/12/11 14:39:26;;;;;;;1.20;0.75;;;;;;;;;;7637625;19;20025;-74
2023/12/11 14:41:58;;;;;;;1.23;0.77;;;;;;;;;;7637871;19;20022;-75
2023/12/11 14:44:34;;;;;;;1.45;1.10;;;;;;;;;;7645644;19;20046;-74
2023/12/11 14:47:07;;;;;;;2.60;1.25;;;;;;;;;;7641160;19;20010;-75
2023/12/11 14:49:40;;;;;;;1.63;0.88;;;;;;;;;;7642354;19;20021;-73
2023/12/11 14:52:13;;;;;;;1.50;1.03;;;;;;;;;;7634391;19;20025;-74
2023/12/11 14:54:46;;;;;;;0.70;0.68;;;;;;;;;;7601439;19;20022;-74
2023/12/11 14:57:19;;;;;;;2.30;1.50;;;;;;;;;;7621804;19;20027;-75
2023/12/11 14:59:52;;;;;;;1.02;0.80;;;;;;;;;;7617646;19;20119;-76
2023/12/11 15:02:25;;;;;;;1.45;1.05;;;;;;;;;;7647246;19;20031;-76
2023/12/11 15:04:58;;;;;;;1.00;0.90;;;;;;;;;;7638937;19;20006;-75
2023/12/11 15:07:30;;;;;;;0.70;0.70;;;;;;;;;;7620568;19;20026;-77
2023/12/11 15:10:05;;;;;;;2.22;1.38;;;;;;;;;;7637339;19;20306;-76
2023/12/11 15:12:40;;;;;;;0.70;0.60;;;;;;;;;;7636419;19;20010;-77
2023/12/11 15:15:15;;;;;;;4.22;0.82;;;;;;;;;;7624250;19;20559;-76
2023/12/11 15:17:48;;;;;;;1.03;0.70;;;;;;;;;;7632794;19;20059;-76
2023/12/11 15:20:22;;;;;;;1.85;0.60;;;;;;;;;;7625913;19;21134;-77
2023/12/11 15:22:55;;;;;;;0.70;0.65;;;;;;;;;;7629937;19;20029;-75
2023/12/11 15:25:29;;;;;;;0.85;0.80;;;;;;;;;;7636648;19;20056;-76
2023/12/11 15:28:03;;;;;;;0.48;0.46;;;;;;;;;;7126288;19;10001102;-76
2023/12/11 15:30:36;;;;;;;0.95;0.50;;;;;;;;;;7110957;19;9999918;-77
2023/12/11 15:33:09;;;;;;;1.25;0.85;;;;;;;;;;7632664;19;20449;-76
2023/12/11 15:35:43;;;;;;;0.52;0.52;;;;;;;;;;7617918;19;20020;-77
2023/12/11 15:38:15;;;;;;;;;;;;;;;;;;7630170;19;20018;-78
2023/12/11 15:40:48;;;;;;;1.10;0.60;;;;;;;;;;7633166;19;20381;-76
2023/12/11 15:43:21;;;;;;;1.02;0.90;;;;;;;;;;7628575;19;20042;-76
2023/12/11 15:45:54;;;;;;;1.42;0.93;;;;;;;;;;7590413;19;20025;-76
2023/12/11 15:48:27;;;;;;;1.60;1.02;;;;;;;;;;7598527;19;20018;-78
2023/12/11 15:51:00;;;;;;;1.27;1.00;;;;;;;;;;7589316;19;21006;-78
2023/12/11 15:53:33;;;;;;;1.33;0.90;;;;;;;;;;7603140;19;20268;-77
2023/12/11 15:56:06;;;;;;;1.43;1.13;;;;;;;;;;7610375;19;20026;-78
2023/12/11 15:58:42;;;;;;;1.75;1.20;;;;;;;;;;7605945;19;20019;-77
2023/12/11 16:01:15;;;;;;;2.58;1.55;;;;;;;;;;7595310;19;20014;-77
2023/12/11 16:03:50;;;;;;;2.33;1.17;;;;;;;;;;7584075;19;20022;-78
2023/12/11 16:06:24;;;;;;;0.95;0.73;;;;;;;;;;7585243;19;20604;-78
2023/12/11 16:08:57;;;;;;;0.95;0.70;;;;;;;;;;7581094;19;20098;-77
2023/12/11 16:11:33;;;;;;;1.80;1.10;;;;;;;;;;7587381;19;20015;-76
2023/12/11 16:14:06;;;;;;;1.23;0.80;;;;;;;;;;7586877;19;21227;-77
2023/12/11 16:16:39;;;;;;;1.05;0.90;;;;;;;;;;7587328;19;20018;-77
2023/12/11 16:19:15;;;;;;;3.50;0.90;;;;;;;;;;7597386;19;20040;-77
2023/12/11 16:21:48;;;;;;;3.53;0.95;;;;;;;;;;7586991;19;21042;-77
2023/12/11 16:24:21;;;;;;;1.50;1.10;;;;;;;;;;7594279;19;20014;-77
2023/12/11 16:26:54;;;;;;;1.27;1.08;;;;;;;;;;7600476;19;20019;-76
2023/12/11 16:29:27;;;;;;;2.17;1.30;;;;;;;;;;7593554;19;20082;-76
2023/12/11 16:32:00;;;;;;;1.70;1.05;;;;;;;;;;7603645;19;20026;-77
2023/12/11 16:34:33;;;;;;;2.03;1.40;;;;;;;;;;7601178;19;20011;-77
2023/12/11 16:37:07;;;;;;;2.30;1.37;;;;;;;;;;7589608;19;20014;-77
2023/12/11 16:39:43;;;;;;;1.95;1.35;;;;;;;;;;7589497;19;20268;-77
2023/12/11 16:42:16;;;;;;;1.17;0.90;;;;;;;;;;7590971;19;21002;-77
2023/12/11 16:44:50;;;;;;;3.85;1.70;;;;;;;;;;7586133;19;20022;-77
2023/12/11 16:47:22;;;;;;;2.57;1.50;;;;;;;;;;7600694;19;20124;-77
2023/12/11 16:49:56;;;;;;;4.63;1.60;;;;;;;;;;7528503;19;20023;-77
2023/12/11 16:52:39;;;;;;;6.50;2.33;;;;;;;;;;7524165;19;20026;-76
2023/12/11 16:55:12;;;;;;;2.40;1.57;;;;;;;;;;7552424;19;21114;-76
2023/12/11 16:57:45;;;;;;;3.93;1.90;;;;;;;;;;7583819;19;20317;-76
2023/12/11 17:00:18;;;;;;;2.72;1.30;;;;;;;;;;7576151;19;20010;-77
2023/12/11 17:02:51;;;;;;;3.50;1.38;;;;;;;;;;7593349;19;20007;-77
2023/12/11 17:05:24;;;;;;;4.65;1.60;;;;;;;;;;7589674;19;20015;-77
2023/12/11 17:07:57;;;;;;;2.15;1.23;;;;;;;;;;7572765;19;20024;-77
2023/12/11 17:10:30;;;;;;;5.50;1.33;;;;;;;;;;7573171;19;20014;-76
2023/12/11 17:13:04;;;;;;;2.70;1.80;;;;;;;;;;7584219;19;20022;-77
2023/12/11 17:15:37;;;;;;;3.42;1.80;;;;;;;;;;7589346;19;20027;-77
2023/12/11 17:18:10;;;;;;;3.27;1.80;;;;;;;;;;7589309;19;20056;-76
2023/12/11 17:20:43;;;;;;;2.80;1.80;;;;;;;;;;7587410;19;20025;-76
2023/12/11 17:23:15;;;;;;;1.50;1.13;;;;;;;;;;7578248;19;20042;-76
2023/12/11 17:25:48;;;;;;;1.92;1.20;;;;;;;;;;7594889;19;20006;-77
2023/12/11 17:28:24;;;;;;;2.75;1.85;;;;;;;;;;7596511;19;20031;-77
2023/12/11 17:30:58;;;;;;;3.22;1.25;;;;;;;;;;7591256;19;20542;-77
2023/12/11 17:33:32;;;;;;;3.30;1.80;;;;;;;;;;7592291;19;20116;-77
2023/12/11 17:36:05;;;;;;;2.17;1.20;;;;;;;;;;7582822;19;20704;-76
2023/12/11 17:38:39;;;;;;;1.60;1.30;;;;;;;;;;7584021;19;20033;-76
2023/12/11 17:41:11;;;;;;;2.42;1.75;;;;;;;;;;7590529;19;20010;-76
2023/12/11 17:43:45;;;;;;;2.85;1.45;;;;;;;;;;7567496;19;20018;-77
2023/12/11 17:46:18;;;;;;;4.78;1.30;;;;;;;;;;7597241;19;20056;-76
2023/12/11 17:48:51;;;;;;;3.78;1.45;;;;;;;;;;7592392;19;20045;-77
2023/12/11 17:51:26;;;;;;;8.03;6.67;;;;;;;;;;7586328;19;20044;-77
2023/12/11 17:53:58;;;;;;;3.40;1.60;;;;;;;;;;7598072;19;20274;-76
2023/12/11 17:56:31;;;;;;;4.65;2.28;;;;;;;;;;7613324;19;20014;-75
2023/12/11 17:59:04;;;;;;;4.70;1.60;;;;;;;;;;7607601;19;20010;-76
2023/12/11 18:01:38;;;;;;;4.95;2.45;;;;;;;;;;7576881;19;20709;-75
2023/12/11 18:04:15;;;;;;;2.38;1.48;;;;;;;;;;7586710;19;20052;-76
2023/12/11 18:06:49;;;;;;;2.63;1.55;;;;;;;;;;7580789;19;20023;-76
2023/12/11 18:09:22;;;;;;;2.88;1.27;;;;;;;;;;7087389;19;10000192;-76
2023/12/11 18:11:55;;;;;;;2.07;1.20;;;;;;;;;;7633160;19;20046;-76
2023/12/11 18:14:31;;;;;;;6.15;2.83;;;;;;;;;;7662264;19;20011;-75
2023/12/11 18:17:06;;;;;;;2.45;1.27;;;;;;;;;;7629556;19;20744;-77
2023/12/11 18:19:39;;;;;;;5.60;2.20;;;;;;;;;;7583647;19;20298;-78
2023/12/11 18:22:12;;;;;;;3.65;2.10;;;;;;;;;;7574375;19;20055;-77
2023/12/11 18:24:45;;;;;;;3.77;1.40;;;;;;;;;;7584626;19;20015;-77
2023/12/11 18:27:19;;;;;;;2.73;1.50;;;;;;;;;;7587423;19;20275;-77
2023/12/11 18:29:52;;;;;;;5.28;2.92;;;;;;;;;;7582266;19;20050;-77
2023/12/11 18:32:25;;;;;;;4.55;2.30;;;;;;;;;;7584146;19;20076;-77
2023/12/11 18:35:00;;;;;;;3.67;1.47;;;;;;;;;;7582232;19;20051;-77
2023/12/11 18:37:33;;;;;;;3.83;1.70;;;;;;;;;;7578233;19;20895;-76
2023/12/11 18:40:06;;;;;;;;;;;;;;;;;;7573214;19;20014;-74
2023/12/11 18:42:39;;;;;;;2.05;1.13;;;;;;;;;;7569985;19;20959;-74
2023/12/11 18:45:13;;;;;;;2.30;1.27;;;;;;;;;;7575465;19;20051;-74
2023/12/11 18:47:45;;;;;;;2.83;1.65;;;;;;;;;;7588615;19;20846;-74
2023/12/11 18:50:18;;;;;;;3.13;1.40;;;;;;;;;;7579486;19;20015;-74
2023/12/11 18:52:51;;;;;;;4.07;1.40;;;;;;;;;;7589210;19;20014;-74
2023/12/11 18:55:31;;;;;;;1.95;1.02;;;;;;;;;;7588643;19;20018;-75
2023/12/11 18:58:04;;;;;;;2.17;1.10;;;;;;;;;;7650068;19;20022;-74
2023/12/11 19:00:38;;;;;;;;;;;;;;;;;;7638817;19;20010;-75
2023/12/11 19:03:10;;;;;;;3.53;1.05;;;;;;;;;;7585505;19;19934;-75
2023/12/11 19:05:43;;;;;;;2.53;1.40;;;;;;;;;;7579118;19;20445;-74
2023/12/11 19:08:16;;;;;;;2.92;1.30;;;;;;;;;;7580807;19;20023;-75
2023/12/11 19:10:49;;;;;;;1.65;1.30;;;;;;;;;;7580955;19;20039;-76
2023/12/11 19:13:22;;;;;;;3.47;1.20;;;;;;;;;;7574607;19;20646;-76
2023/12/11 19:15:56;;;;;;;4.90;1.00;;;;;;;;;;7585484;19;20018;-76
2023/12/11 19:18:28;;;;;;;2.30;1.30;;;;;;;;;;7587595;19;20015;-76
2023/12/11 19:21:02;;;;;;;2.00;1.17;;;;;;;;;;7587553;19;20043;-76
2023/12/11 19:23:35;;;;;;;1.67;0.95;;;;;;;;;;7591906;19;20094;-76
2023/12/11 19:26:10;;;;;;;4.30;1.25;;;;;;;;;;7588042;19;20010;-75
2023/12/11 19:28:43;;;;;;;4.22;1.90;;;;;;;;;;7585786;19;20061;-76
2023/12/11 19:31:16;;;;;;;4.47;1.80;;;;;;;;;;7579366;19;20022;-76
2023/12/11 19:33:50;;;;;;;3.60;1.40;;;;;;;;;;7589595;19;21363;-75
2023/12/11 19:36:23;;;;;;;3.67;1.73;;;;;;;;;;7584732;19;20365;-74
2023/12/11 19:38:55;;;;;;;4.13;1.85;;;;;;;;;;7601344;19;20019;-77
2023/12/11 19:41:28;;;;;;;1.87;1.10;;;;;;;;;;7574523;19;20023;-76
2023/12/11 19:44:01;;;;;;;2.28;1.40;;;;;;;;;;7580781;19;20500;-77
2023/12/11 19:46:34;;;;;;;3.10;1.20;;;;;;;;;;7582333;19;20021;-76
2023/12/11 19:49:08;;;;;;;2.35;1.27;;;;;;;;;;7587170;19;20378;-76
2023/12/11 19:51:42;;;;;;;5.63;1.23;;;;;;;;;;7588221;19;20586;-76
2023/12/11 19:54:16;;;;;;;2.55;1.10;;;;;;;;;;7582289;19;20883;-74
2023/12/11 19:56:49;;;;;;;4.13;1.20;;;;;;;;;;7587756;19;20025;-75
2023/12/11 19:59:21;;;;;;;7.70;1.90;;;;;;;;;;7587200;19;20015;-76
2023/12/11 20:01:54;;;;;;;4.70;1.80;;;;;;;;;;7585482;19;20014;-76
2023/12/11 20:04:27;;;;;;;7.33;1.53;;;;;;;;;;7590855;19;21152;-76
2023/12/11 20:07:00;;;;;;;3.45;1.52;;;;;;;;;;7580260;19;20298;-76
2023/12/11 20:09:33;;;;;;;2.42;1.30;;;;;;;;;;7586220;19;20042;-76
2023/12/11 20:12:06;;;;;;;1.20;0.98;;;;;;;;;;7593195;19;20026;-76
2023/12/11 20:14:46;;;;;;;3.83;1.02;;;;;;;;;;7587769;19;20025;-74
2023/12/11 20:17:20;;;;;;;4.70;1.42;;;;;;;;;;7585278;19;20014;-74
2023/12/11 20:19:57;;;;;;;4.30;1.40;;;;;;;;;;7548369;19;20015;-76
2023/12/11 20:22:31;;;;;;;3.45;1.40;;;;;;;;;;7589503;19;20014;-76
2023/12/11 20:25:04;;;;;;;3.70;1.20;;;;;;;;;;7586656;19;20029;-77
2023/12/11 20:27:37;;;;;;;2.80;1.00;;;;;;;;;;7582190;19;20019;-74
2023/12/11 20:30:10;;;;;;;2.80;1.05;;;;;;;;;;7595828;19;20018;-74
2023/12/11 20:32:43;;;;;;;5.55;2.05;;;;;;;;;;7579122;19;20059;-74
2023/12/11 20:35:33;;;;;;;3.70;1.33;;;;;;;;;;7588511;19;20018;-75
2023/12/11 20:38:05;;;;;;;2.85;1.20;;;;;;;;;;7589268;19;20014;-75
